createdAt,value
2018-09-17T00:01:18.536Z,14.99
2018-09-17T00:03:48.631Z,14.94
2018-09-17T00:06:18.719Z,14.95
2018-09-17T00:08:48.912Z,14.88
2018-09-17T00:11:18.832Z,14.88
2018-09-17T00:13:49.111Z,14.74
2018-09-17T00:16:19.314Z,14.83
2018-09-17T00:18:49.298Z,14.83
2018-09-17T00:21:20.032Z,14.81
2018-09-17T00:23:50.275Z,14.73
2018-09-17T00:26:20.520Z,14.63
2018-09-17T00:28:50.879Z,14.51
2018-09-17T00:31:21.109Z,14.54
2018-09-17T00:33:51.538Z,14.55
2018-09-17T00:36:21.986Z,14.50
2018-09-17T00:38:52.375Z,14.57
2018-09-17T00:41:22.156Z,14.50
2018-09-17T00:43:51.888Z,14.50
2018-09-17T00:46:21.831Z,14.53
2018-09-17T00:48:51.985Z,14.56
2018-09-17T00:51:22.901Z,14.60
2018-09-17T00:53:52.837Z,14.58
2018-09-17T00:56:22.840Z,14.76
2018-09-17T00:58:52.843Z,14.74
2018-09-17T01:01:23.164Z,14.68
2018-09-17T01:03:53.304Z,14.68
2018-09-17T01:06:24.088Z,14.69
2018-09-17T01:08:53.940Z,14.70
2018-09-17T01:11:24.121Z,14.72
2018-09-17T01:13:56.765Z,14.69
2018-09-17T01:16:27.233Z,14.59
2018-09-17T01:18:57.488Z,14.56
2018-09-17T01:21:27.978Z,14.61
2018-09-17T01:23:58.227Z,14.58
2018-09-17T01:26:28.882Z,14.50
2018-09-17T01:28:58.842Z,14.44
2018-09-17T01:31:28.715Z,14.43
2018-09-17T01:33:58.812Z,14.50
2018-09-17T01:36:29.009Z,14.47
2018-09-17T01:38:58.764Z,14.38
2018-09-17T01:41:29.001Z,14.13
2018-09-17T01:43:59.451Z,14.09
2018-09-17T01:46:29.980Z,14.11
2018-09-17T01:48:59.838Z,14.13
2018-09-17T01:51:29.985Z,14.06
2018-09-17T01:54:00.191Z,13.91
2018-09-17T01:56:30.751Z,13.73
2018-09-17T01:59:00.662Z,13.72
2018-09-17T02:01:30.886Z,13.78
2018-09-17T02:04:01.051Z,13.82
2018-09-17T02:06:32.268Z,13.69
2018-09-17T02:09:02.698Z,13.67
2018-09-17T02:11:33.194Z,13.61
2018-09-17T02:14:03.626Z,13.61
2018-09-17T02:16:33.752Z,13.50
2018-09-17T02:19:04.783Z,13.43
2018-09-17T02:21:34.710Z,13.39
2018-09-17T02:24:04.592Z,13.33
2018-09-17T02:26:35.138Z,13.29
2018-09-17T02:29:05.412Z,13.29
2018-09-17T02:31:35.499Z,13.27
2018-09-17T02:34:05.938Z,13.26
2018-09-17T02:36:36.310Z,13.25
2018-09-17T02:39:07.219Z,13.25
2018-09-17T02:41:37.793Z,13.24
2018-09-17T02:44:07.721Z,13.18
2018-09-17T02:46:38.129Z,13.19
2018-09-17T02:49:08.240Z,13.15
2018-09-17T02:51:38.399Z,13.16
2018-09-17T02:54:08.796Z,13.15
2018-09-17T02:56:39.233Z,13.11
2018-09-17T02:59:09.602Z,13.18
2018-09-17T03:01:39.621Z,13.26
2018-09-17T03:04:10.298Z,13.24
2018-09-17T03:06:40.358Z,13.34
2018-09-17T03:09:10.596Z,13.35
2018-09-17T03:11:42.368Z,13.26
2018-09-17T03:14:13.669Z,13.19
2018-09-17T03:16:55.038Z,13.12
2018-09-17T03:19:26.263Z,13.08
2018-09-17T03:21:57.336Z,13.07
2018-09-17T03:24:27.694Z,13.20
2018-09-17T03:26:58.250Z,13.14
2018-09-17T03:29:28.291Z,13.23
2018-09-17T03:31:58.349Z,13.21
2018-09-17T03:34:28.319Z,13.25
2018-09-17T03:36:58.427Z,13.27
2018-09-17T03:39:28.686Z,13.22
2018-09-17T03:41:59.118Z,13.30
2018-09-17T03:44:29.355Z,13.28
2018-09-17T03:46:59.322Z,13.17
2018-09-17T03:49:29.434Z,13.03
2018-09-17T03:51:59.703Z,13.03
2018-09-17T03:54:30.018Z,13.06
2018-09-17T03:57:00.514Z,13.09
2018-09-17T03:59:30.417Z,13.01
2018-09-17T04:02:00.531Z,13.08
2018-09-17T04:04:30.654Z,13.01
2018-09-17T04:07:00.760Z,12.99
2018-09-17T04:09:30.845Z,12.87
2018-09-17T04:12:00.914Z,12.87
2018-09-17T04:14:31.328Z,12.91
2018-09-17T04:17:01.935Z,12.93
2018-09-17T04:19:32.246Z,12.68
2018-09-17T04:22:02.467Z,12.77
2018-09-17T04:24:32.784Z,12.81
2018-09-17T04:27:04.746Z,12.71
2018-09-17T04:29:34.847Z,12.68
2018-09-17T04:32:05.318Z,12.73
2018-09-17T04:34:35.610Z,12.75
2018-09-17T04:37:05.638Z,12.68
2018-09-17T04:39:35.696Z,12.63
2018-09-17T04:42:05.904Z,12.73
2018-09-17T04:44:36.016Z,12.73
2018-09-17T04:47:06.545Z,12.71
2018-09-17T04:49:36.743Z,12.58
2018-09-17T04:52:07.286Z,12.61
2018-09-17T04:54:37.690Z,12.69
2018-09-17T04:57:07.854Z,12.71
2018-09-17T04:59:38.015Z,12.64
2018-09-17T05:02:09.160Z,12.60
2018-09-17T05:04:39.491Z,12.65
2018-09-17T05:07:09.602Z,12.67
2018-09-17T05:09:39.429Z,12.77
2018-09-17T05:12:09.558Z,12.78
2018-09-17T05:14:39.641Z,12.76
2018-09-17T05:17:10.329Z,12.80
2018-09-17T05:19:40.631Z,12.81
2018-09-17T05:22:10.509Z,12.73
2018-09-17T05:24:40.764Z,12.79
2018-09-17T05:27:10.897Z,12.92
2018-09-17T05:29:41.091Z,12.85
2018-09-17T05:32:11.465Z,12.80
2018-09-17T05:34:42.095Z,12.79
2018-09-17T05:37:13.099Z,12.94
2018-09-17T05:39:43.389Z,12.98
2018-09-17T05:42:13.499Z,13.05
2018-09-17T05:44:44.391Z,13.01
2018-09-17T05:47:14.726Z,13.03
2018-09-17T05:49:44.499Z,13.02
2018-09-17T05:52:14.615Z,13.05
2018-09-17T05:54:44.731Z,13.05
2018-09-17T05:57:14.974Z,13.15
2018-09-17T05:59:44.995Z,13.18
2018-09-17T06:02:15.466Z,13.14
2018-09-17T06:04:45.708Z,13.15
2018-09-17T06:07:16.315Z,13.17
2018-09-17T06:09:46.225Z,13.25
2018-09-17T06:12:16.064Z,13.30
2018-09-17T06:14:46.173Z,13.37
2018-09-17T06:17:18.726Z,13.47
2018-09-17T06:19:48.829Z,13.52
2018-09-17T06:22:19.255Z,13.60
2018-09-17T06:24:49.371Z,13.66
2018-09-17T06:27:19.554Z,13.80
2018-09-17T06:31:13.887Z,13.86
2018-09-17T06:33:44.006Z,13.95
2018-09-17T06:36:14.060Z,14.07
2018-09-17T06:38:44.184Z,14.05
2018-09-17T06:41:14.570Z,14.26
2018-09-17T06:43:44.957Z,14.41
2018-09-17T06:46:14.662Z,14.49
2018-09-17T06:48:44.691Z,14.53
2018-09-17T06:51:15.117Z,14.75
2018-09-17T06:53:45.104Z,14.96
2018-09-17T06:56:16.083Z,15.07
2018-09-17T06:58:46.997Z,15.30
2018-09-17T07:01:17.163Z,15.44
2018-09-17T07:03:46.929Z,15.63
2018-09-17T07:06:17.179Z,15.79
2018-09-17T07:08:47.091Z,16.03
2018-09-17T07:11:17.112Z,16.20
2018-09-17T07:13:47.704Z,16.32
2018-09-17T07:16:18.446Z,16.51
2018-09-17T07:18:48.364Z,16.75
2018-09-17T07:21:18.313Z,17.00
2018-09-17T07:23:48.458Z,17.23
2018-09-17T07:26:18.803Z,17.38
2018-09-17T07:28:49.111Z,17.46
2018-09-17T07:31:19.486Z,17.66
2018-09-17T07:33:49.838Z,17.83
2018-09-17T07:36:20.306Z,17.97
2018-09-17T07:38:51.691Z,18.16
2018-09-17T07:41:22.131Z,18.39
2018-09-17T07:43:52.194Z,18.53
2018-09-17T07:46:23.408Z,18.75
2018-09-17T07:48:53.924Z,19.04
2018-09-17T07:51:24.104Z,19.09
2018-09-17T07:53:54.470Z,19.33
2018-09-17T07:56:24.507Z,19.40
2018-09-17T07:58:57.098Z,19.69
2018-09-17T08:01:27.435Z,20.02
2018-09-17T08:03:58.550Z,20.20
2018-09-17T08:06:30.687Z,20.34
2018-09-17T08:09:00.886Z,20.57
2018-09-17T08:11:30.964Z,20.53
2018-09-17T08:14:02.906Z,20.72
2018-09-17T08:16:34.062Z,20.86
2018-09-17T08:19:05.681Z,20.94
2018-09-17T08:21:35.823Z,21.07
2018-09-17T08:24:07.373Z,21.23
2018-09-17T08:26:37.173Z,21.40
2018-09-17T08:29:07.088Z,21.40
2018-09-17T08:31:36.963Z,21.21
2018-09-17T08:34:06.604Z,21.21
2018-09-17T08:36:37.931Z,21.23
2018-09-17T08:39:12.667Z,21.36
2018-09-17T08:41:42.967Z,21.40
2018-09-17T08:44:13.270Z,21.57
2018-09-17T08:46:42.976Z,21.65
2018-09-17T08:49:13.162Z,21.60
2018-09-17T08:51:43.258Z,21.79
2018-09-17T08:54:13.292Z,21.85
2018-09-17T08:56:50.859Z,21.87
2018-09-17T08:59:27.904Z,22.11
2018-09-17T09:02:07.946Z,22.15
2018-09-17T09:04:44.655Z,22.47
2018-09-17T09:07:20.916Z,22.24
2018-09-17T09:09:51.601Z,22.47
2018-09-17T09:12:35.804Z,22.63
2018-09-17T09:15:11.603Z,22.58
2018-09-17T09:17:45.127Z,22.71
2018-09-17T09:20:18.103Z,22.69
2018-09-17T09:22:48.210Z,22.64
2018-09-17T09:25:18.608Z,22.84
2018-09-17T09:27:49.738Z,22.83
2018-09-17T09:30:20.870Z,22.94
2018-09-17T09:32:50.686Z,22.99
2018-09-17T09:35:21.664Z,23.12
2018-09-17T09:37:54.013Z,23.13
2018-09-17T09:40:24.453Z,23.11
2018-09-17T09:42:58.493Z,23.05
2018-09-17T09:45:31.995Z,23.11
2018-09-17T09:48:03.780Z,23.36
2018-09-17T09:50:33.694Z,23.55
2018-09-17T09:53:04.200Z,23.62
2018-09-17T09:55:35.253Z,23.53
2018-09-17T09:58:05.480Z,23.63
2018-09-17T10:00:40.696Z,23.74
2018-09-17T10:03:17.939Z,23.69
2018-09-17T10:05:47.934Z,23.52
2018-09-17T10:08:18.860Z,23.58
2018-09-17T10:10:54.176Z,23.65
2018-09-17T10:13:29.404Z,23.77
2018-09-17T10:16:05.625Z,23.72
2018-09-17T10:18:45.539Z,23.72
2018-09-17T10:21:17.053Z,23.77
2018-09-17T10:23:54.633Z,23.82
2018-09-17T10:26:28.006Z,23.89
2018-09-17T10:29:00.151Z,23.96
2018-09-17T10:31:32.380Z,23.80
2018-09-17T10:34:02.891Z,23.85
2018-09-17T10:36:33.807Z,24.01
2018-09-17T10:39:04.359Z,24.13
2018-09-17T10:41:34.222Z,24.17
2018-09-17T10:44:05.754Z,24.34
2018-09-17T10:46:36.338Z,24.41
2018-09-17T10:49:06.839Z,24.50
2018-09-17T10:51:37.624Z,24.60
2018-09-17T10:54:08.419Z,24.53
2018-09-17T10:56:39.342Z,24.33
2018-09-17T10:59:12.794Z,24.46
2018-09-17T11:01:42.648Z,24.45
2018-09-17T11:04:13.367Z,24.58
2018-09-17T11:06:43.386Z,24.44
2018-09-17T11:09:13.844Z,24.51
2018-09-17T11:11:44.848Z,24.65
2018-09-17T11:14:14.876Z,24.73
2018-09-17T11:16:44.754Z,24.87
2018-09-17T11:19:15.818Z,24.99
2018-09-17T11:21:46.299Z,25.04
2018-09-17T11:24:16.911Z,25.24
2018-09-17T11:26:47.221Z,25.43
2018-09-17T11:29:17.961Z,25.52
2018-09-17T11:31:48.360Z,25.66
2018-09-17T11:34:19.299Z,25.78
2018-09-17T11:36:49.602Z,25.84
2018-09-17T11:39:21.283Z,25.72
2018-09-17T11:41:51.739Z,26.01
2018-09-17T11:44:24.494Z,26.10
2018-09-17T11:46:54.775Z,26.11
2018-09-17T11:49:25.805Z,26.26
2018-09-17T11:51:55.756Z,26.24
2018-09-17T11:54:27.521Z,26.25
2018-09-17T11:56:58.917Z,26.41
2018-09-17T11:59:29.509Z,26.50
2018-09-17T12:02:06.924Z,26.41
2018-09-17T12:04:41.612Z,26.44
2018-09-17T12:07:16.611Z,26.57
2018-09-17T12:09:46.802Z,26.67
2018-09-17T12:12:20.281Z,26.88
2018-09-17T12:14:51.522Z,26.78
2018-09-17T12:17:22.472Z,26.74
2018-09-17T12:19:54.332Z,26.98
2018-09-17T12:22:26.227Z,27.13
2018-09-17T12:24:57.069Z,27.06
2018-09-17T12:27:27.972Z,27.30
2018-09-17T12:29:58.141Z,27.45
2018-09-17T12:32:30.214Z,27.57
2018-09-17T12:35:00.673Z,27.63
2018-09-17T12:37:31.676Z,27.63
2018-09-17T12:40:01.800Z,27.64
2018-09-17T12:42:32.958Z,27.70
2018-09-17T12:45:06.813Z,27.69
2018-09-17T12:47:37.855Z,27.77
2018-09-17T12:50:07.853Z,27.88
2018-09-17T12:52:38.927Z,27.83
2018-09-17T12:55:10.000Z,27.65
2018-09-17T12:57:40.171Z,27.51
2018-09-17T13:00:11.677Z,27.44
2018-09-17T13:02:42.263Z,27.39
2018-09-17T13:05:11.979Z,27.47
2018-09-17T13:07:41.691Z,27.41
2018-09-17T13:10:12.857Z,27.71
2018-09-17T13:12:46.052Z,27.70
2018-09-17T13:15:15.872Z,27.71
2018-09-17T13:17:45.736Z,27.75
2018-09-17T13:20:15.706Z,27.85
2018-09-17T13:22:45.686Z,28.05
2018-09-17T13:25:16.459Z,28.25
2018-09-17T13:27:46.784Z,28.26
2018-09-17T13:30:17.539Z,28.11
2018-09-17T13:32:47.821Z,28.26
2018-09-17T13:35:18.920Z,28.34
2018-09-17T13:37:48.986Z,28.55
2018-09-17T13:40:20.600Z,28.79
2018-09-17T13:42:52.909Z,28.52
2018-09-17T13:45:24.008Z,28.64
2018-09-17T13:47:54.065Z,28.82
2018-09-17T13:50:24.249Z,28.61
2018-09-17T13:52:54.975Z,28.64
2018-09-17T13:55:25.805Z,28.52
2018-09-17T13:57:57.107Z,28.51
2018-09-17T14:00:27.207Z,28.96
2018-09-17T14:02:57.900Z,29.21
2018-09-17T14:05:28.704Z,29.22
2018-09-17T14:07:58.910Z,29.23
2018-09-17T14:10:29.903Z,29.38
2018-09-17T14:13:00.368Z,29.22
2018-09-17T14:15:31.065Z,29.04
2018-09-17T14:18:02.753Z,29.06
2018-09-17T14:20:33.712Z,28.71
2018-09-17T14:23:04.029Z,28.44
2018-09-17T14:25:37.689Z,28.23
2018-09-17T14:28:09.704Z,28.17
2018-09-17T14:30:41.693Z,28.26
2018-09-17T14:33:17.057Z,28.03
2018-09-17T14:35:50.006Z,27.86
2018-09-17T14:38:21.220Z,28.02
2018-09-17T14:41:04.172Z,28.08
2018-09-17T14:43:34.336Z,28.50
2018-09-17T14:46:06.376Z,28.72
2018-09-17T14:48:37.621Z,28.61
2018-09-17T14:51:11.364Z,28.71
2018-09-17T14:53:42.627Z,28.90
2018-09-17T14:56:12.477Z,29.00
2018-09-17T14:58:42.387Z,29.07
2018-09-17T15:01:12.475Z,29.10
2018-09-17T15:03:48.241Z,29.28
2018-09-17T15:06:19.739Z,29.15
2018-09-17T15:08:50.580Z,29.21
2018-09-17T15:11:22.854Z,29.24
2018-09-17T15:13:53.685Z,29.17
2018-09-17T15:16:26.007Z,29.07
2018-09-17T15:18:59.036Z,29.17
2018-09-17T15:21:32.599Z,29.14
2018-09-17T15:24:05.628Z,29.08
2018-09-17T15:26:37.074Z,28.90
2018-09-17T15:29:09.745Z,28.28
2018-09-17T15:31:40.984Z,28.53
2018-09-17T15:34:11.648Z,28.53
2018-09-17T15:36:42.374Z,28.39
2018-09-17T15:39:14.336Z,28.36
2018-09-17T15:41:46.922Z,27.89
2018-09-17T15:44:17.022Z,27.91
2018-09-17T15:46:50.424Z,27.78
2018-09-17T15:49:22.859Z,27.76
2018-09-17T15:51:55.917Z,27.70
2018-09-17T15:54:33.859Z,27.50
2018-09-17T15:57:08.075Z,27.32
2018-09-17T15:59:43.445Z,27.29
2018-09-17T16:02:18.918Z,27.04
2018-09-17T16:04:52.053Z,27.13
2018-09-17T16:07:24.878Z,26.96
2018-09-17T16:09:59.121Z,26.88
2018-09-17T16:12:30.067Z,26.59
2018-09-17T16:15:02.954Z,26.74
2018-09-17T16:17:35.577Z,26.68
2018-09-17T16:20:18.057Z,26.59
2018-09-17T16:22:50.463Z,26.60
2018-09-17T16:25:24.471Z,26.57
2018-09-17T16:27:56.742Z,26.43
2018-09-17T16:30:32.196Z,26.29
2018-09-17T16:33:07.001Z,26.10
2018-09-17T16:35:39.839Z,25.99
2018-09-17T16:38:14.130Z,25.84
2018-09-17T16:40:45.539Z,25.72
2018-09-17T16:43:16.387Z,25.57
2018-09-17T16:45:51.565Z,25.40
2018-09-17T16:48:26.101Z,25.28
2018-09-17T16:51:01.317Z,25.06
2018-09-17T16:53:37.919Z,24.87
2018-09-17T16:56:13.762Z,24.72
2018-09-17T16:58:53.524Z,24.58
2018-09-17T17:01:27.915Z,24.44
2018-09-17T17:03:59.494Z,24.30
2018-09-17T17:06:32.436Z,24.14
2018-09-17T17:09:07.928Z,23.96
2018-09-17T17:11:38.265Z,23.84
2018-09-17T17:14:08.901Z,23.67
2018-09-17T17:16:41.902Z,23.50
2018-09-17T17:19:13.377Z,23.36
2018-09-17T17:21:46.138Z,23.18
2018-09-17T17:24:17.043Z,23.07
2018-09-17T17:26:48.399Z,22.93
2018-09-17T17:29:19.459Z,22.79
2018-09-17T17:31:49.901Z,22.68
2018-09-17T17:34:19.787Z,22.54
2018-09-17T17:36:51.233Z,22.40
2018-09-17T17:39:23.055Z,22.29
2018-09-17T17:41:55.665Z,22.16
2018-09-17T17:44:26.554Z,21.98
2018-09-17T17:46:59.744Z,21.87
2018-09-17T17:49:30.127Z,21.78
2018-09-17T17:52:02.202Z,21.66
2018-09-17T17:54:34.570Z,21.56
2018-09-17T17:57:09.015Z,21.45
2018-09-17T17:59:40.645Z,21.42
2018-09-17T18:02:14.033Z,21.33
2018-09-17T18:04:44.483Z,21.24
2018-09-17T18:07:15.721Z,21.13
2018-09-17T18:09:48.554Z,21.07
2018-09-17T18:12:19.227Z,20.96
2018-09-17T18:14:53.220Z,20.93
2018-09-17T18:17:25.644Z,20.85
2018-09-17T18:19:56.974Z,20.75
2018-09-17T18:22:28.725Z,20.74
2018-09-17T18:25:00.785Z,20.65
2018-09-17T18:27:35.494Z,20.59
2018-09-17T18:30:09.825Z,20.49
2018-09-17T18:32:40.777Z,20.41
2018-09-17T18:35:12.762Z,20.29
2018-09-17T18:37:47.504Z,20.23
2018-09-17T18:40:23.135Z,20.20
2018-09-17T18:42:54.177Z,20.14
2018-09-17T18:45:26.775Z,20.05
2018-09-17T18:48:03.787Z,19.95
2018-09-17T18:50:36.645Z,19.88
2018-09-17T18:53:06.893Z,19.84
2018-09-17T18:55:37.638Z,19.83
2018-09-17T18:58:08.819Z,19.78
2018-09-17T19:00:46.807Z,19.74
2018-09-17T19:03:20.503Z,19.68
2018-09-17T19:05:50.837Z,19.69
2018-09-17T19:08:22.428Z,19.65
2018-09-17T19:10:53.264Z,19.65
2018-09-17T19:13:24.473Z,19.60
2018-09-17T19:15:58.197Z,19.51
2018-09-17T19:18:34.192Z,19.42
2018-09-17T19:21:05.736Z,19.34
2018-09-17T19:23:42.341Z,19.32
2018-09-17T19:26:13.429Z,19.18
2018-09-17T19:28:48.855Z,19.18
2018-09-17T19:31:21.851Z,19.15
2018-09-17T19:33:53.371Z,19.01
2018-09-17T19:36:24.603Z,18.99
2018-09-17T19:39:00.431Z,18.99
2018-09-17T19:41:31.001Z,18.90
2018-09-17T19:44:03.078Z,18.87
2018-09-17T19:46:35.133Z,18.68
2018-09-17T19:49:08.320Z,18.91
2018-09-17T19:51:44.215Z,18.89
2018-09-17T19:54:14.713Z,18.84
2018-09-17T19:56:48.333Z,18.81
2018-09-17T19:59:23.823Z,18.79
2018-09-17T20:01:54.855Z,18.77
2018-09-17T20:04:30.690Z,18.77
2018-09-17T20:07:03.141Z,18.75
2018-09-17T20:09:33.186Z,18.74
2018-09-17T20:12:04.677Z,18.66
2018-09-17T20:14:35.937Z,18.62
2018-09-17T20:17:10.574Z,18.60
2018-09-17T20:19:46.189Z,18.45
2018-09-17T20:22:24.289Z,18.51
2018-09-17T20:24:56.128Z,18.47
2018-09-17T20:27:31.137Z,18.39
2018-09-17T20:30:06.655Z,18.44
2018-09-17T20:32:38.465Z,18.45
2018-09-17T20:35:12.766Z,18.39
2018-09-17T20:37:49.975Z,18.42
2018-09-17T20:40:21.378Z,18.39
2018-09-17T20:42:59.644Z,18.33
2018-09-17T20:45:33.071Z,18.34
2018-09-17T20:48:05.346Z,18.30
2018-09-17T20:50:37.746Z,18.19
2018-09-17T20:53:08.437Z,18.14
2018-09-17T20:55:38.869Z,18.15
2018-09-17T20:58:09.729Z,18.07
2018-09-17T21:00:40.194Z,18.01
2018-09-17T21:03:16.001Z,17.96
2018-09-17T21:05:46.025Z,17.91
2018-09-17T21:08:16.401Z,17.90
2018-09-17T21:10:46.613Z,17.85
2018-09-17T21:13:17.175Z,17.82
2018-09-17T21:15:47.492Z,17.82
2018-09-17T21:18:17.881Z,17.82
2018-09-17T21:20:48.765Z,17.81
2018-09-17T21:23:19.599Z,17.77
2018-09-17T21:25:50.587Z,17.70
2018-09-17T21:28:20.454Z,17.62
2018-09-17T21:30:50.537Z,17.59
2018-09-17T21:33:21.225Z,17.57
2018-09-17T21:35:52.276Z,17.47
2018-09-17T21:38:22.485Z,17.37
2018-09-17T21:42:17.711Z,17.43
2018-09-17T21:44:47.793Z,17.41
2018-09-17T21:47:18.546Z,17.23
2018-09-17T21:49:49.068Z,17.26
2018-09-17T21:52:20.500Z,17.25
2018-09-17T21:54:50.758Z,17.30
2018-09-17T21:57:21.300Z,17.33
2018-09-17T21:59:51.380Z,17.40
2018-09-17T22:02:21.641Z,17.41
2018-09-17T22:04:51.742Z,17.40
2018-09-17T22:07:22.479Z,17.38
2018-09-17T22:09:52.609Z,17.37
2018-09-17T22:12:26.581Z,17.31
2018-09-17T22:14:57.688Z,17.32
2018-09-17T22:17:28.774Z,17.30
2018-09-17T22:19:58.854Z,17.39
2018-09-17T22:22:30.448Z,17.36
2018-09-17T22:25:00.723Z,17.32
2018-09-17T22:27:31.006Z,17.25
2018-09-17T22:30:01.770Z,17.22
2018-09-17T22:32:33.258Z,17.17
2018-09-17T22:35:04.536Z,17.18
2018-09-17T22:37:34.473Z,17.17
2018-09-17T22:40:04.924Z,17.13
2018-09-17T22:42:35.261Z,17.14
2018-09-17T22:45:05.298Z,17.06
2018-09-17T22:47:36.444Z,17.10
2018-09-17T22:50:06.369Z,17.10
2018-09-17T22:52:36.948Z,17.08
2018-09-17T22:55:07.344Z,17.04
2018-09-17T22:57:38.189Z,16.97
2018-09-17T23:00:08.317Z,16.98
2018-09-17T23:02:39.246Z,16.95
2018-09-17T23:05:09.626Z,16.90
2018-09-17T23:07:40.205Z,16.82
2018-09-17T23:10:11.116Z,16.75
2018-09-17T23:12:41.102Z,16.69
2018-09-17T23:15:11.324Z,16.68
2018-09-17T23:17:44.346Z,16.71
2018-09-17T23:20:17.442Z,16.69
2018-09-17T23:22:50.022Z,16.50
2018-09-17T23:25:20.398Z,16.71
2018-09-17T23:27:50.515Z,16.64
2018-09-17T23:30:21.317Z,16.71
2018-09-17T23:32:51.423Z,16.76
2018-09-17T23:35:21.449Z,16.79
2018-09-17T23:37:53.661Z,16.77
2018-09-17T23:40:25.518Z,16.79
2018-09-17T23:42:55.895Z,16.85
2018-09-17T23:45:26.922Z,16.78
2018-09-17T23:47:57.010Z,16.83
2018-09-17T23:50:27.810Z,16.85
2018-09-17T23:52:58.288Z,16.59
2018-09-17T23:55:35.314Z,16.90
2018-09-17T23:58:06.045Z,16.94
